Time;durP1;ratioP1;P1;durP2;ratioP2;P2;SDS_P1;SDS_P2;PMS_P1;PMS_P2;Temp;Humidity;BMP_temperature;BMP_pressure;BME280_temperature;BME280_humidity;BME280_pressure;Samples;Min_cycle;Max_cycle;Signal;HPM_P1;HPM_P2
2024/01/01 00:01:55;;;;;;;4.60;3.03;;;;;;;;;;5020326;28;20186;-73
2024/01/01 00:04:20;;;;;;;3.67;2.70;;;;;;;;;;5026454;28;20175;-73
2024/01/01 00:06:47;;;;;;;6.73;2.57;;;;;;;;;;5020267;28;20169;-73
2024/01/01 00:09:12;;;;;;;5.57;3.10;;;;;;;;;;5010558;28;20176;-73
2024/01/01 00:11:37;;;;;;;12.90;7.50;;;;;;;;;;5021186;28;20176;-73
2024/01/01 00:14:03;;;;;;;5.10;3.00;;;;;;;;;;5015657;28;20290;-73
2024/01/01 00:16:28;;;;;;;5.33;3.13;;;;;;;;;;5009035;28;20177;-73
2024/01/01 00:18:53;;;;;;;7.13;2.73;;;;;;;;;;5023713;28;20426;-73
2024/01/01 00:21:18;;;;;;;4.73;2.73;;;;;;;;;;5015826;28;20175;-73
2024/01/01 00:23:44;;;;;;;3.73;2.57;;;;;;;;;;5006301;28;20407;-73
2024/01/01 00:26:09;;;;;;;5.83;2.60;;;;;;;;;;5019529;28;20189;-72
2024/01/01 00:28:34;;;;;;;3.73;2.57;;;;;;;;;;5018442;28;20180;-73
2024/01/01 00:30:59;;;;;;;6.37;2.77;;;;;;;;;;5008098;28;20196;-73
2024/01/01 00:33:24;;;;;;;2.30;2.10;;;;;;;;;;4998426;28;20472;-73
2024/01/01 00:35:50;;;;;;;3.20;2.20;;;;;;;;;;5015501;28;20270;-73
2024/01/01 00:38:15;;;;;;;4.57;2.77;;;;;;;;;;5003334;28;20183;-74
2024/01/01 00:40:41;;;;;;;3.40;2.10;;;;;;;;;;4997383;28;20178;-73
2024/01/01 00:43:06;;;;;;;5.77;2.70;;;;;;;;;;5021002;28;20263;-73
2024/01/01 00:45:31;;;;;;;3.50;2.60;;;;;;;;;;5012566;28;20210;-73
2024/01/01 00:47:57;;;;;;;6.87;2.47;;;;;;;;;;5001492;28;20167;-73
2024/01/01 00:50:22;;;;;;;4.40;2.63;;;;;;;;;;4996872;28;20197;-72
2024/01/01 00:52:47;;;;;;;5.03;3.00;;;;;;;;;;5001249;28;20176;-73
2024/01/01 00:55:13;;;;;;;3.30;2.67;;;;;;;;;;5003401;28;20195;-73
2024/01/01 00:57:38;;;;;;;5.80;2.77;;;;;;;;;;5023074;28;20175;-73
2024/01/01 01:00:04;;;;;;;5.40;2.43;;;;;;;;;;5000948;28;20172;-73
2024/01/01 01:02:29;;;;;;;2.80;1.70;;;;;;;;;;5004146;28;20174;-73
2024/01/01 01:04:55;;;;;;;3.77;2.30;;;;;;;;;;4998695;28;20264;-73
2024/01/01 01:07:20;;;;;;;5.93;2.90;;;;;;;;;;4997599;28;20206;-73
2024/01/01 01:09:46;;;;;;;5.23;2.70;;;;;;;;;;4996670;28;20221;-75
2024/01/01 01:12:11;;;;;;;3.73;2.60;;;;;;;;;;4999469;28;20220;-73
2024/01/01 01:14:36;;;;;;;5.00;2.43;;;;;;;;;;4998292;28;20173;-73
2024/01/01 01:17:01;;;;;;;4.10;2.20;;;;;;;;;;4995686;28;20262;-73
2024/01/01 01:19:27;;;;;;;3.23;1.83;;;;;;;;;;4997621;28;20176;-73
2024/01/01 01:21:52;;;;;;;4.70;2.23;;;;;;;;;;4994220;28;20175;-72
2024/01/01 01:24:18;;;;;;;5.13;2.53;;;;;;;;;;5009173;28;20169;-73
2024/01/01 01:26:43;;;;;;;9.07;1.80;;;;;;;;;;5016402;28;20175;-73
2024/01/01 01:29:09;;;;;;;3.93;1.70;;;;;;;;;;4995586;28;20230;-73
2024/01/01 01:31:34;;;;;;;5.03;2.07;;;;;;;;;;5013860;28;20254;-73
2024/01/01 01:34:00;;;;;;;2.73;2.13;;;;;;;;;;4999076;28;20173;-72
2024/01/01 01:36:25;;;;;;;4.37;1.80;;;;;;;;;;4997857;28;20181;-73
2024/01/01 01:38:50;;;;;;;3.47;1.70;;;;;;;;;;5010800;28;20211;-73
2024/01/01 01:41:15;;;;;;;4.23;2.30;;;;;;;;;;5008278;28;20183;-72
2024/01/01 01:43:41;;;;;;;3.00;1.67;;;;;;;;;;4992835;28;20173;-73
2024/01/01 01:46:06;;;;;;;1.80;1.53;;;;;;;;;;4994390;28;20288;-73
2024/01/01 01:48:31;;;;;;;3.37;1.90;;;;;;;;;;5008352;28;20168;-73
2024/01/01 01:50:57;;;;;;;3.67;2.00;;;;;;;;;;5006575;28;20168;-73
2024/01/01 01:53:25;;;;;;;6.87;2.07;;;;;;;;;;5019558;28;20175;-73
2024/01/01 01:55:52;;;;;;;2.17;1.90;;;;;;;;;;4999456;28;20266;-73
2024/01/01 01:58:18;;;;;;;4.07;1.93;;;;;;;;;;5016688;28;20178;-73
2024/01/01 02:00:47;;;;;;;3.47;1.93;;;;;;;;;;5003523;28;20172;-73
2024/01/01 02:03:12;;;;;;;3.30;2.57;;;;;;;;;;5002318;28;20174;-73
2024/01/01 02:05:38;;;;;;;3.73;1.67;;;;;;;;;;4998877;28;20198;-73
2024/01/01 02:08:03;;;;;;;2.30;1.50;;;;;;;;;;5003832;28;20285;-73
2024/01/01 02:10:28;;;;;;;2.83;1.60;;;;;;;;;;5002333;28;20171;-73
2024/01/01 02:12:54;;;;;;;4.87;1.70;;;;;;;;;;5002146;28;20179;-73
2024/01/01 02:15:20;;;;;;;3.10;2.00;;;;;;;;;;5017090;28;20180;-73
2024/01/01 02:17:45;;;;;;;2.73;1.50;;;;;;;;;;5020415;28;20171;-72
2024/01/01 02:20:11;;;;;;;4.63;2.17;;;;;;;;;;4998713;28;20171;-73
2024/01/01 02:22:37;;;;;;;6.13;2.20;;;;;;;;;;5001123;28;20175;-73
2024/01/01 02:25:02;;;;;;;3.33;1.80;;;;;;;;;;4998226;28;20195;-73
2024/01/01 02:27:28;;;;;;;4.10;2.07;;;;;;;;;;5002081;28;20175;-73
2024/01/01 02:29:53;;;;;;;2.27;1.57;;;;;;;;;;5021794;28;20198;-74
2024/01/01 02:32:18;;;;;;;3.27;2.00;;;;;;;;;;5005966;28;20247;-73
2024/01/01 02:34:43;;;;;;;4.17;1.43;;;;;;;;;;5018028;28;20180;-73
2024/01/01 02:37:08;;;;;;;4.67;2.27;;;;;;;;;;5013893;28;20170;-73
2024/01/01 02:39:34;;;;;;;2.63;1.63;;;;;;;;;;5015881;28;20176;-73
2024/01/01 02:41:59;;;;;;;5.73;2.03;;;;;;;;;;5012253;28;20174;-76
2024/01/01 02:44:24;;;;;;;3.10;1.70;;;;;;;;;;5021271;28;20188;-73
2024/01/01 02:46:49;;;;;;;1.63;1.50;;;;;;;;;;5012414;28;20178;-73
2024/01/01 02:49:14;;;;;;;2.77;1.67;;;;;;;;;;5013020;28;20206;-74
2024/01/01 02:51:43;;;;;;;5.43;1.53;;;;;;;;;;5018113;28;20181;-73
2024/01/01 02:54:08;;;;;;;2.07;1.57;;;;;;;;;;5040108;28;20163;-72
2024/01/01 02:56:34;;;;;;;5.63;1.47;;;;;;;;;;5026324;28;20182;-73
2024/01/01 02:58:59;;;;;;;2.83;1.67;;;;;;;;;;5018503;28;20365;-73
2024/01/01 03:01:24;;;;;;;3.47;1.97;;;;;;;;;;5021485;28;20177;-73
2024/01/01 03:03:49;;;;;;;2.77;1.63;;;;;;;;;;5021704;28;20171;-73
2024/01/01 03:06:18;;;;;;;2.93;1.87;;;;;;;;;;5020515;28;20356;-73
2024/01/01 03:08:44;;;;;;;2.40;1.73;;;;;;;;;;5036554;28;20174;-73
2024/01/01 03:11:09;;;;;;;2.80;1.83;;;;;;;;;;5010264;28;20262;-73
2024/01/01 03:13:34;;;;;;;2.80;1.80;;;;;;;;;;5033392;28;20171;-72
2024/01/01 03:16:00;;;;;;;5.57;1.70;;;;;;;;;;5015241;28;20286;-73
2024/01/01 03:18:25;;;;;;;7.70;2.23;;;;;;;;;;5023000;28;20207;-73
2024/01/01 03:20:50;;;;;;;3.63;2.10;;;;;;;;;;5012470;28;20179;-73
2024/01/01 03:23:15;;;;;;;8.53;2.60;;;;;;;;;;5017289;28;20182;-75
2024/01/01 03:25:41;;;;;;;3.37;1.90;;;;;;;;;;5009751;28;20200;-73
2024/01/01 03:28:06;;;;;;;5.33;2.10;;;;;;;;;;5016214;28;20163;-73
2024/01/01 03:30:32;;;;;;;3.93;1.83;;;;;;;;;;5016019;28;20199;-73
2024/01/01 03:32:57;;;;;;;3.97;1.90;;;;;;;;;;5015116;28;20219;-73
2024/01/01 03:35:23;;;;;;;3.97;1.87;;;;;;;;;;4999771;28;20206;-73
2024/01/01 03:37:48;;;;;;;5.70;2.00;;;;;;;;;;5015786;28;20427;-73
2024/01/01 03:40:13;;;;;;;7.47;2.20;;;;;;;;;;5001754;28;20175;-73
2024/01/01 03:42:38;;;;;;;3.13;1.90;;;;;;;;;;4995669;28;20179;-73
2024/01/01 03:45:04;;;;;;;6.47;2.00;;;;;;;;;;5000131;28;20190;-73
2024/01/01 03:47:31;;;;;;;5.30;2.07;;;;;;;;;;4994221;28;20179;-73
2024/01/01 03:49:57;;;;;;;4.53;1.77;;;;;;;;;;5013586;28;20181;-73
2024/01/01 03:52:22;;;;;;;6.17;1.83;;;;;;;;;;4998159;28;20172;-75
2024/01/01 03:54:47;;;;;;;5.13;2.50;;;;;;;;;;5003827;28;20184;-72
2024/01/01 03:57:12;;;;;;;6.47;2.67;;;;;;;;;;5009498;28;20175;-74
2024/01/01 03:59:37;;;;;;;5.23;1.80;;;;;;;;;;4995517;28;20168;-75
2024/01/01 04:02:03;;;;;;;6.50;1.80;;;;;;;;;;5007274;28;20202;-73
2024/01/01 04:04:28;;;;;;;5.57;2.33;;;;;;;;;;5000773;28;20206;-73
2024/01/01 04:06:53;;;;;;;2.80;1.70;;;;;;;;;;5021243;28;20175;-72
2024/01/01 04:09:18;;;;;;;6.00;1.97;;;;;;;;;;5015864;28;20180;-73
2024/01/01 04:11:44;;;;;;;4.83;1.93;;;;;;;;;;4999626;28;20173;-73
2024/01/01 04:14:09;;;;;;;7.83;2.90;;;;;;;;;;5001903;28;20168;-73
2024/01/01 04:16:35;;;;;;;5.80;2.40;;;;;;;;;;5002747;28;20176;-73
2024/01/01 04:19:01;;;;;;;6.00;2.73;;;;;;;;;;4998358;28;20170;-73
2024/01/01 04:21:26;;;;;;;6.10;2.37;;;;;;;;;;5002166;28;20179;-72
2024/01/01 04:23:54;;;;;;;6.57;2.57;;;;;;;;;;4995893;28;20179;-73
2024/01/01 04:26:19;;;;;;;8.80;2.90;;;;;;;;;;5001603;28;20186;-73
2024/01/01 04:28:44;;;;;;;7.90;2.10;;;;;;;;;;4995055;28;20168;-73
2024/01/01 04:31:10;;;;;;;4.13;2.00;;;;;;;;;;4998444;28;20285;-73
2024/01/01 04:33:35;;;;;;;5.20;1.67;;;;;;;;;;5010187;28;20214;-73
2024/01/01 04:36:00;;;;;;;2.93;1.93;;;;;;;;;;5015238;28;20272;-73
2024/01/01 04:38:25;;;;;;;6.97;1.80;;;;;;;;;;4999174;28;20239;-73
2024/01/01 04:40:50;;;;;;;2.57;1.67;;;;;;;;;;4995252;28;20179;-73
2024/01/01 04:43:16;;;;;;;6.53;2.20;;;;;;;;;;4998351;28;20209;-73
2024/01/01 04:45:41;;;;;;;5.10;1.80;;;;;;;;;;5013608;28;20214;-73
2024/01/01 04:48:06;;;;;;;5.33;2.13;;;;;;;;;;4990955;28;20262;-74
2024/01/01 04:50:32;;;;;;;5.30;1.50;;;;;;;;;;4999462;28;20178;-73
2024/01/01 04:52:57;;;;;;;13.00;2.37;;;;;;;;;;5005683;28;20175;-73
2024/01/01 04:55:22;;;;;;;3.03;1.70;;;;;;;;;;5021227;28;20220;-73
2024/01/01 04:57:48;;;;;;;3.17;1.67;;;;;;;;;;5003505;28;20194;-73
2024/01/01 05:00:14;;;;;;;5.00;1.87;;;;;;;;;;5014964;28;20171;-73
2024/01/01 05:02:39;;;;;;;5.67;1.33;;;;;;;;;;5002609;28;20183;-73
2024/01/01 05:05:05;;;;;;;2.90;1.60;;;;;;;;;;5001523;28;20201;-73
2024/01/01 05:07:30;;;;;;;6.63;1.47;;;;;;;;;;5018419;28;20172;-73
2024/01/01 05:09:56;;;;;;;5.87;1.77;;;;;;;;;;5001136;28;20175;-73
2024/01/01 05:12:21;;;;;;;5.33;2.30;;;;;;;;;;4996427;28;20175;-73
2024/01/01 05:14:46;;;;;;;4.97;2.30;;;;;;;;;;5004665;28;20186;-73
2024/01/01 05:17:11;;;;;;;3.33;1.43;;;;;;;;;;4994478;28;20191;-73
2024/01/01 05:19:36;;;;;;;4.60;2.10;;;;;;;;;;5005228;28;20182;-75
2024/01/01 05:22:03;;;;;;;4.17;1.77;;;;;;;;;;4999654;28;20183;-73
2024/01/01 05:24:29;;;;;;;8.23;2.73;;;;;;;;;;5017044;28;20167;-73
2024/01/01 05:26:54;;;;;;;3.77;1.33;;;;;;;;;;4997902;28;20175;-72
2024/01/01 05:29:19;;;;;;;7.43;2.87;;;;;;;;;;5014510;28;20170;-73
2024/01/01 05:31:44;;;;;;;6.03;2.00;;;;;;;;;;5011492;28;20310;-73
2024/01/01 05:34:09;;;;;;;5.40;2.00;;;;;;;;;;4995453;28;20206;-73
2024/01/01 05:36:35;;;;;;;4.53;1.60;;;;;;;;;;4997248;28;20195;-72
2024/01/01 05:39:00;;;;;;;5.27;2.13;;;;;;;;;;4997636;28;20228;-73
2024/01/01 05:41:26;;;;;;;5.63;1.83;;;;;;;;;;4995383;28;20171;-73
2024/01/01 05:43:51;;;;;;;5.13;3.10;;;;;;;;;;5015497;28;20180;-73
2024/01/01 05:46:17;;;;;;;5.53;2.03;;;;;;;;;;5009901;28;20211;-72
2024/01/01 05:48:42;;;;;;;6.77;2.17;;;;;;;;;;4995151;28;20465;-73
2024/01/01 05:51:08;;;;;;;7.13;2.40;;;;;;;;;;5009994;28;20175;-73
2024/01/01 05:53:33;;;;;;;6.10;1.90;;;;;;;;;;5019588;28;20234;-73
2024/01/01 05:55:58;;;;;;;9.23;2.43;;;;;;;;;;4999906;28;20290;-73
2024/01/01 05:58:24;;;;;;;5.20;2.17;;;;;;;;;;4999914;28;20178;-73
2024/01/01 06:00:49;;;;;;;6.60;2.20;;;;;;;;;;5012629;28;20172;-73
2024/01/01 06:03:14;;;;;;;5.87;1.93;;;;;;;;;;5003396;28;20364;-73
2024/01/01 06:05:40;;;;;;;6.43;2.80;;;;;;;;;;4997316;28;20191;-73
2024/01/01 06:08:05;;;;;;;5.63;2.53;;;;;;;;;;5019404;28;20163;-73
2024/01/01 06:10:31;;;;;;;5.70;2.20;;;;;;;;;;5005166;28;20517;-72
2024/01/01 06:12:56;;;;;;;4.07;2.00;;;;;;;;;;4998457;28;20163;-73
2024/01/01 06:15:22;;;;;;;4.90;1.90;;;;;;;;;;5002749;28;20270;-73
2024/01/01 06:17:48;;;;;;;5.20;1.60;;;;;;;;;;4996588;28;20208;-72
2024/01/01 06:20:13;;;;;;;7.73;2.23;;;;;;;;;;5019349;28;20172;-72
2024/01/01 06:22:38;;;;;;;7.53;2.20;;;;;;;;;;4996554;28;20219;-73
2024/01/01 06:25:04;;;;;;;6.80;2.40;;;;;;;;;;5016796;28;20195;-73
2024/01/01 06:27:30;;;;;;;8.13;2.50;;;;;;;;;;4998202;28;20175;-74
2024/01/01 06:29:55;;;;;;;7.53;2.50;;;;;;;;;;4996703;28;20264;-72
2024/01/01 06:32:20;;;;;;;4.50;1.93;;;;;;;;;;5010448;28;20512;-73
2024/01/01 06:34:46;;;;;;;3.80;1.50;;;;;;;;;;5013238;28;20182;-72
2024/01/01 06:37:12;;;;;;;4.83;2.50;;;;;;;;;;5010116;28;20172;-73
2024/01/01 06:39:37;;;;;;;5.47;2.47;;;;;;;;;;5011191;28;20279;-72
2024/01/01 06:42:02;;;;;;;6.53;1.50;;;;;;;;;;5008605;28;20256;-74
2024/01/01 06:44:28;;;;;;;6.37;2.07;;;;;;;;;;4993438;28;20186;-72
2024/01/01 06:46:53;;;;;;;5.73;2.10;;;;;;;;;;4990693;28;20214;-73
2024/01/01 06:49:19;;;;;;;7.90;2.23;;;;;;;;;;4994903;28;20260;-73
2024/01/01 06:51:48;;;;;;;7.13;1.70;;;;;;;;;;5003762;28;20180;-72
2024/01/01 06:54:13;;;;;;;4.17;1.80;;;;;;;;;;4996371;28;20194;-73
2024/01/01 06:56:39;;;;;;;7.50;1.67;;;;;;;;;;5024144;28;20168;-72
2024/01/01 06:59:04;;;;;;;3.73;1.70;;;;;;;;;;4999340;28;20503;-73
2024/01/01 07:01:29;;;;;;;5.57;2.20;;;;;;;;;;5006863;28;20171;-73
2024/01/01 07:03:54;;;;;;;4.03;1.43;;;;;;;;;;5002766;28;20172;-73
2024/01/01 07:06:19;;;;;;;5.50;1.70;;;;;;;;;;5019390;28;20195;-73
2024/01/01 07:08:44;;;;;;;2.87;1.67;;;;;;;;;;5002135;28;20187;-73
2024/01/01 07:11:10;;;;;;;3.90;1.67;;;;;;;;;;5013662;28;20248;-73
2024/01/01 07:13:35;;;;;;;5.23;1.47;;;;;;;;;;4999310;28;20217;-75
2024/01/01 07:16:00;;;;;;;7.87;2.03;;;;;;;;;;4996312;28;20176;-72
2024/01/01 07:18:26;;;;;;;3.57;1.30;;;;;;;;;;5000435;28;20246;-72
2024/01/01 07:20:51;;;;;;;4.47;1.63;;;;;;;;;;5001336;28;20249;-73
2024/01/01 07:23:16;;;;;;;6.17;1.50;;;;;;;;;;4999477;28;20182;-73
2024/01/01 07:25:41;;;;;;;2.93;1.47;;;;;;;;;;5001111;28;20192;-73
2024/01/01 07:28:07;;;;;;;6.17;1.67;;;;;;;;;;4997503;28;20217;-73
2024/01/01 07:30:33;;;;;;;2.47;1.20;;;;;;;;;;4994978;28;20255;-72
2024/01/01 07:32:58;;;;;;;4.93;1.70;;;;;;;;;;5007729;28;20318;-73
2024/01/01 07:35:24;;;;;;;3.53;1.60;;;;;;;;;;5018171;28;20526;-73
2024/01/01 07:37:49;;;;;;;4.70;2.33;;;;;;;;;;5012566;28;20179;-72
2024/01/01 07:40:14;;;;;;;4.77;1.67;;;;;;;;;;5017126;28;20218;-72
2024/01/01 07:42:39;;;;;;;5.77;1.53;;;;;;;;;;5016220;28;20175;-73
2024/01/01 07:45:05;;;;;;;6.47;2.20;;;;;;;;;;5028095;28;20203;-75
2024/01/01 07:47:30;;;;;;;4.97;2.47;;;;;;;;;;5013996;28;20173;-75
2024/01/01 07:49:56;;;;;;;5.87;2.13;;;;;;;;;;5008480;28;20288;-73
2024/01/01 07:52:21;;;;;;;5.33;1.70;;;;;;;;;;5024950;28;20258;-73
2024/01/01 07:54:47;;;;;;;6.13;1.83;;;;;;;;;;5016951;28;20255;-73
2024/01/01 07:57:12;;;;;;;3.33;1.63;;;;;;;;;;5014216;28;20193;-75
2024/01/01 07:59:38;;;;;;;5.53;1.57;;;;;;;;;;5012307;28;20195;-72
2024/01/01 08:02:03;;;;;;;5.20;1.47;;;;;;;;;;5021149;28;20179;-73
2024/01/01 08:04:28;;;;;;;5.10;1.70;;;;;;;;;;5032120;28;20231;-72
2024/01/01 08:06:54;;;;;;;3.80;1.60;;;;;;;;;;5019919;28;20244;-74
2024/01/01 08:09:19;;;;;;;2.70;1.57;;;;;;;;;;5016097;28;20180;-74
2024/01/01 08:11:44;;;;;;;2.17;1.33;;;;;;;;;;5025185;28;20188;-74
2024/01/01 08:14:09;;;;;;;3.40;1.27;;;;;;;;;;5016914;28;20163;-73
2024/01/01 08:16:35;;;;;;;4.57;1.67;;;;;;;;;;5036174;28;20309;-75
2024/01/01 08:19:00;;;;;;;4.83;1.93;;;;;;;;;;5015354;28;20176;-74
2024/01/01 08:21:26;;;;;;;5.30;1.97;;;;;;;;;;5036927;28;20263;-72
2024/01/01 08:23:51;;;;;;;5.93;1.50;;;;;;;;;;5010885;28;20183;-73
2024/01/01 08:26:16;;;;;;;6.53;1.90;;;;;;;;;;5019481;28;20191;-73
2024/01/01 08:28:42;;;;;;;4.57;1.93;;;;;;;;;;5022620;28;20175;-75
2024/01/01 08:31:07;;;;;;;4.87;1.73;;;;;;;;;;5019682;28;20192;-73
2024/01/01 08:33:32;;;;;;;5.23;1.87;;;;;;;;;;5000972;28;20198;-73
2024/01/01 08:35:57;;;;;;;8.93;4.33;;;;;;;;;;5002426;28;20182;-72
2024/01/01 08:38:23;;;;;;;6.43;1.87;;;;;;;;;;5025280;28;20175;-73
2024/01/01 08:40:48;;;;;;;6.07;2.27;;;;;;;;;;5008526;28;20180;-73
2024/01/01 08:43:14;;;;;;;8.60;1.97;;;;;;;;;;5024043;28;20179;-75
2024/01/01 08:45:39;;;;;;;4.13;1.67;;;;;;;;;;5015305;28;20228;-72
2024/01/01 08:48:04;;;;;;;11.97;1.80;;;;;;;;;;5003023;28;20232;-73
2024/01/01 08:50:30;;;;;;;10.53;3.37;;;;;;;;;;4988064;28;20211;-73
2024/01/01 08:52:55;;;;;;;4.97;2.60;;;;;;;;;;5001392;28;20178;-72
2024/01/01 08:55:20;;;;;;;5.23;2.50;;;;;;;;;;4996678;28;20180;-73
2024/01/01 08:57:45;;;;;;;8.50;2.03;;;;;;;;;;5015807;28;20268;-73
2024/01/01 09:00:11;;;;;;;6.70;2.67;;;;;;;;;;5017759;28;20233;-72
2024/01/01 09:02:36;;;;;;;5.03;2.20;;;;;;;;;;5000387;28;20268;-73
2024/01/01 09:05:01;;;;;;;7.30;2.20;;;;;;;;;;5019166;28;20216;-74
2024/01/01 09:07:27;;;;;;;7.83;2.80;;;;;;;;;;5019765;28;20172;-74
2024/01/01 09:09:52;;;;;;;3.43;1.80;;;;;;;;;;4993557;28;20168;-71
2024/01/01 09:12:17;;;;;;;7.23;2.77;;;;;;;;;;5016859;28;20357;-73
2024/01/01 09:14:43;;;;;;;3.30;1.80;;;;;;;;;;5001441;28;20283;-73
2024/01/01 09:17:08;;;;;;;3.67;2.10;;;;;;;;;;5001009;28;20262;-72
2024/01/01 09:19:34;;;;;;;3.93;2.10;;;;;;;;;;5000757;28;20179;-72
2024/01/01 09:21:59;;;;;;;3.33;1.63;;;;;;;;;;5012366;28;20170;-72
2024/01/01 09:24:24;;;;;;;4.90;2.53;;;;;;;;;;5002267;28;20189;-75
2024/01/01 09:26:49;;;;;;;5.70;2.13;;;;;;;;;;5007675;28;20245;-73
2024/01/01 09:29:14;;;;;;;4.90;2.13;;;;;;;;;;5001044;28;20688;-74
2024/01/01 09:31:40;;;;;;;8.33;2.57;;;;;;;;;;5000804;28;20225;-72
2024/01/01 09:34:06;;;;;;;6.67;2.13;;;;;;;;;;5015375;28;20176;-74
2024/01/01 09:36:32;;;;;;;7.53;2.60;;;;;;;;;;5021337;28;20232;-72
2024/01/01 09:38:57;;;;;;;8.63;2.90;;;;;;;;;;5012343;28;20177;-75
2024/01/01 09:41:25;;;;;;;3.97;1.83;;;;;;;;;;5016240;28;20201;-74
2024/01/01 09:43:51;;;;;;;2.17;1.33;;;;;;;;;;5010697;28;20172;-72
2024/01/01 09:46:20;;;;;;;5.17;2.33;;;;;;;;;;5013370;28;20198;-73
2024/01/01 09:48:45;;;;;;;2.80;1.60;;;;;;;;;;5009948;28;20181;-74
2024/01/01 09:51:11;;;;;;;8.50;2.10;;;;;;;;;;5019523;28;20473;-74
2024/01/01 09:53:36;;;;;;;4.43;1.97;;;;;;;;;;5022220;28;20174;-72
2024/01/01 09:56:02;;;;;;;3.40;2.13;;;;;;;;;;5016533;28;20189;-73
2024/01/01 09:58:27;;;;;;;6.40;2.90;;;;;;;;;;5018492;28;20206;-74
2024/01/01 10:00:52;;;;;;;7.33;2.00;;;;;;;;;;5009074;28;20175;-73
2024/01/01 10:03:18;;;;;;;6.60;2.93;;;;;;;;;;5035835;28;20179;-73
2024/01/01 10:05:46;;;;;;;7.00;2.60;;;;;;;;;;5028661;28;20186;-73
2024/01/01 10:08:12;;;;;;;7.43;2.10;;;;;;;;;;5016830;28;20183;-72
2024/01/01 10:10:38;;;;;;;9.90;3.43;;;;;;;;;;5009597;28;20166;-74
2024/01/01 10:13:11;;;;;;;5.93;2.33;;;;;;;;;;5011846;28;20178;-74
2024/01/01 10:15:40;;;;;;;8.20;3.00;;;;;;;;;;5013412;28;20188;-74
2024/01/01 10:18:10;;;;;;;6.50;2.43;;;;;;;;;;5013748;28;20180;-74
2024/01/01 10:20:35;;;;;;;6.50;4.87;;;;;;;;;;5016243;28;20279;-74
2024/01/01 10:23:05;;;;;;;8.90;3.33;;;;;;;;;;5012294;28;20252;-74
2024/01/01 10:25:30;;;;;;;8.30;3.67;;;;;;;;;;5014900;28;20225;-75
2024/01/01 10:27:57;;;;;;;8.07;2.47;;;;;;;;;;5012153;28;20187;-74
2024/01/01 10:30:22;;;;;;;7.13;3.57;;;;;;;;;;5024009;28;20282;-74
2024/01/01 10:32:48;;;;;;;4.97;2.00;;;;;;;;;;5017670;28;20348;-74
2024/01/01 10:35:13;;;;;;;6.77;2.33;;;;;;;;;;5021597;28;20448;-74
2024/01/01 10:37:39;;;;;;;10.40;3.50;;;;;;;;;;5018491;28;20174;-74
2024/01/01 10:40:05;;;;;;;8.13;2.33;;;;;;;;;;5018862;28;20231;-74
2024/01/01 10:42:34;;;;;;;8.73;2.77;;;;;;;;;;5025247;28;20175;-74
2024/01/01 10:45:03;;;;;;;9.33;2.20;;;;;;;;;;5038369;28;20209;-75
2024/01/01 10:47:29;;;;;;;6.30;1.90;;;;;;;;;;5025111;28;20197;-74
2024/01/01 10:49:57;;;;;;;10.10;2.80;;;;;;;;;;5008850;28;20258;-72
2024/01/01 10:52:23;;;;;;;8.13;2.80;;;;;;;;;;5019127;28;20181;-75
2024/01/01 10:55:01;;;;;;;8.87;3.07;;;;;;;;;;5040001;28;20244;-72
2024/01/01 10:57:26;;;;;;;7.70;2.43;;;;;;;;;;5016956;28;20176;-72
2024/01/01 10:59:55;;;;;;;8.57;2.90;;;;;;;;;;5015699;28;20458;-73
2024/01/01 11:02:21;;;;;;;6.60;2.23;;;;;;;;;;5014570;28;20185;-73
2024/01/01 11:04:50;;;;;;;8.70;2.53;;;;;;;;;;5031946;28;20188;-72
2024/01/01 11:07:15;;;;;;;7.03;2.10;;;;;;;;;;5012841;28;20197;-72
2024/01/01 11:09:47;;;;;;;9.70;2.63;;;;;;;;;;5013022;28;20174;-75
2024/01/01 11:12:32;;;;;;;6.47;2.30;;;;;;;;;;5019427;28;20536;-73
2024/01/01 11:15:17;;;;;;;6.83;2.53;;;;;;;;;;5012432;28;20234;-73
2024/01/01 11:17:42;;;;;;;7.80;2.20;;;;;;;;;;5028408;28;20178;-73
2024/01/01 11:20:09;;;;;;;4.87;2.10;;;;;;;;;;5015143;28;20187;-72
2024/01/01 11:22:39;;;;;;;8.77;2.83;;;;;;;;;;5033672;28;20263;-73
2024/01/01 11:25:04;;;;;;;10.67;2.53;;;;;;;;;;5010765;28;20208;-72
2024/01/01 11:27:33;;;;;;;9.70;3.13;;;;;;;;;;5033164;28;20174;-72
2024/01/01 11:30:03;;;;;;;8.00;2.77;;;;;;;;;;5043550;28;20198;-75
2024/01/01 11:32:28;;;;;;;8.03;3.17;;;;;;;;;;5019010;28;20242;-72
2024/01/01 11:35:02;;;;;;;10.97;2.37;;;;;;;;;;5040166;28;20622;-73
2024/01/01 11:37:28;;;;;;;11.97;2.77;;;;;;;;;;5013433;28;20168;-75
2024/01/01 11:40:00;;;;;;;9.27;3.43;;;;;;;;;;5033683;28;20260;-73
2024/01/01 11:42:25;;;;;;;6.17;2.30;;;;;;;;;;5011976;28;20467;-72
2024/01/01 11:45:03;;;;;;;10.87;3.30;;;;;;;;;;5035808;28;20255;-72
2024/01/01 11:47:28;;;;;;;5.83;2.50;;;;;;;;;;5016410;28;20177;-73
2024/01/01 11:49:54;;;;;;;6.57;2.90;;;;;;;;;;5024230;28;20172;-73
2024/01/01 11:52:19;;;;;;;10.10;3.63;;;;;;;;;;5014516;28;20182;-73
2024/01/01 11:54:47;;;;;;;7.97;4.13;;;;;;;;;;5032811;28;20243;-75
2024/01/01 11:57:12;;;;;;;5.70;2.23;;;;;;;;;;5021213;28;20226;-72
2024/01/01 11:59:38;;;;;;;7.60;2.67;;;;;;;;;;5012596;28;20177;-72
2024/01/01 12:02:03;;;;;;;8.10;3.27;;;;;;;;;;5033719;28;20177;-72
2024/01/01 12:04:28;;;;;;;6.83;2.57;;;;;;;;;;5031196;28;20168;-75
2024/01/01 12:06:53;;;;;;;10.37;3.73;;;;;;;;;;5020038;28;20444;-72
2024/01/01 12:09:20;;;;;;;5.40;2.43;;;;;;;;;;5013856;28;20168;-73
2024/01/01 12:11:45;;;;;;;10.03;3.47;;;;;;;;;;5018245;28;20247;-75
2024/01/01 12:14:11;;;;;;;5.47;2.43;;;;;;;;;;5034831;28;20272;-72
2024/01/01 12:16:37;;;;;;;6.57;2.53;;;;;;;;;;5012829;28;20190;-72
2024/01/01 12:19:03;;;;;;;5.87;2.30;;;;;;;;;;5016438;28;20186;-72
2024/01/01 12:21:38;;;;;;;7.57;3.97;;;;;;;;;;5013773;28;20213;-72
2024/01/01 12:24:03;;;;;;;10.17;2.87;;;;;;;;;;5014875;28;20172;-72
2024/01/01 12:26:29;;;;;;;10.47;3.53;;;;;;;;;;5028133;28;20203;-73
2024/01/01 12:29:07;;;;;;;7.93;2.50;;;;;;;;;;5007245;28;20181;-72
2024/01/01 12:31:32;;;;;;;8.60;2.80;;;;;;;;;;5005330;28;20245;-73
2024/01/01 12:33:57;;;;;;;17.93;7.23;;;;;;;;;;5021763;28;20204;-72
2024/01/01 12:36:22;;;;;;;11.73;4.93;;;;;;;;;;5021377;28;20250;-72
2024/01/01 12:38:48;;;;;;;9.13;3.40;;;;;;;;;;5034642;28;20242;-73
2024/01/01 12:41:17;;;;;;;7.00;2.70;;;;;;;;;;5017219;28;20186;-73
2024/01/01 12:43:42;;;;;;;9.40;2.60;;;;;;;;;;5034118;28;20172;-73
2024/01/01 12:46:07;;;;;;;7.37;2.10;;;;;;;;;;5021092;28;20281;-72
2024/01/01 12:48:34;;;;;;;3.70;1.73;;;;;;;;;;5015974;28;20170;-72
2024/01/01 12:50:59;;;;;;;8.17;2.87;;;;;;;;;;5020192;28;20174;-73
2024/01/01 12:53:25;;;;;;;5.97;2.63;;;;;;;;;;5016409;28;20251;-72
2024/01/01 12:55:50;;;;;;;9.47;2.93;;;;;;;;;;5018431;28;20178;-72
2024/01/01 12:58:15;;;;;;;8.40;2.73;;;;;;;;;;5018454;22;20383;-73
2024/01/01 13:00:40;;;;;;;10.20;2.67;;;;;;;;;;4989288;28;20178;-72
2024/01/01 13:03:06;;;;;;;7.87;3.23;;;;;;;;;;4983219;28;20188;-73
2024/01/01 13:05:31;;;;;;;7.10;2.57;;;;;;;;;;4973482;28;20194;-72
2024/01/01 13:07:56;;;;;;;9.83;2.73;;;;;;;;;;4978573;28;20175;-73
2024/01/01 13:10:22;;;;;;;7.63;1.67;;;;;;;;;;4996755;28;20240;-72
2024/01/01 13:12:47;;;;;;;6.30;2.30;;;;;;;;;;4977831;28;20176;-72
2024/01/01 13:15:13;;;;;;;6.87;2.20;;;;;;;;;;4979077;28;20175;-72
2024/01/01 13:17:39;;;;;;;8.77;2.77;;;;;;;;;;4977442;28;20179;-72
2024/01/01 13:20:04;;;;;;;14.40;3.70;;;;;;;;;;4988276;28;20263;-73
2024/01/01 13:22:29;;;;;;;5.03;2.13;;;;;;;;;;4980454;28;20265;-72
2024/01/01 13:24:55;;;;;;;8.73;3.10;;;;;;;;;;4975990;28;20179;-72
2024/01/01 13:27:20;;;;;;;7.63;3.23;;;;;;;;;;4980275;28;20384;-72
2024/01/01 13:29:45;;;;;;;8.20;2.77;;;;;;;;;;4985741;28;20183;-72
2024/01/01 13:32:11;;;;;;;15.20;3.53;;;;;;;;;;4997161;28;20186;-72
2024/01/01 13:34:36;;;;;;;6.70;2.63;;;;;;;;;;4999709;28;20170;-72
2024/01/01 13:37:01;;;;;;;8.37;3.40;;;;;;;;;;4991236;28;20175;-72
2024/01/01 13:39:26;;;;;;;6.43;3.10;;;;;;;;;;4998458;28;20178;-72
2024/01/01 13:41:51;;;;;;;5.93;2.53;;;;;;;;;;4977385;28;20175;-73
2024/01/01 13:44:17;;;;;;;9.03;2.53;;;;;;;;;;4990881;28;20183;-72
2024/01/01 13:46:42;;;;;;;10.43;4.57;;;;;;;;;;4987660;28;20216;-73
2024/01/01 13:49:07;;;;;;;7.60;3.90;;;;;;;;;;4979246;28;20172;-72
2024/01/01 13:51:33;;;;;;;10.63;4.97;;;;;;;;;;4995343;28;20184;-72
2024/01/01 13:53:59;;;;;;;11.77;4.97;;;;;;;;;;4995431;28;20183;-72
2024/01/01 13:56:24;;;;;;;7.27;4.17;;;;;;;;;;4979529;28;20193;-72
2024/01/01 13:58:49;;;;;;;18.07;5.27;;;;;;;;;;4964757;28;20228;-75
2024/01/01 14:01:15;;;;;;;7.20;3.33;;;;;;;;;;4961677;28;20215;-72
2024/01/01 14:03:40;;;;;;;6.60;3.47;;;;;;;;;;4965937;28;20508;-73
2024/01/01 14:06:06;;;;;;;7.73;4.83;;;;;;;;;;4977182;28;20196;-72
2024/01/01 14:08:31;;;;;;;8.50;5.20;;;;;;;;;;4982953;28;20176;-72
2024/01/01 14:10:57;;;;;;;13.53;4.30;;;;;;;;;;4973697;28;20172;-73
2024/01/01 14:13:23;;;;;;;5.17;3.20;;;;;;;;;;4964606;28;20167;-72
2024/01/01 14:15:48;;;;;;;7.83;2.50;;;;;;;;;;4973188;28;20210;-73
2024/01/01 14:18:14;;;;;;;9.53;3.07;;;;;;;;;;4963715;28;20224;-72
2024/01/01 14:20:39;;;;;;;6.63;2.47;;;;;;;;;;4964913;28;20178;-73
2024/01/01 14:23:04;;;;;;;5.27;3.37;;;;;;;;;;4963955;28;20173;-73
2024/01/01 14:25:30;;;;;;;10.03;2.97;;;;;;;;;;4959089;28;20194;-72
2024/01/01 14:27:55;;;;;;;7.47;2.97;;;;;;;;;;4981842;28;20448;-72
2024/01/01 14:30:21;;;;;;;9.13;5.13;;;;;;;;;;4959422;28;20200;-73
2024/01/01 14:32:50;;;;;;;8.27;3.67;;;;;;;;;;4964048;28;20262;-72
2024/01/01 14:35:15;;;;;;;13.93;5.33;;;;;;;;;;4972828;28;20176;-72